Time;durP1;ratioP1;P1;durP2;ratioP2;P2;SDS_P1;SDS_P2;PMS_P1;PMS_P2;Temp;Humidity;BMP_temperature;BMP_pressure;BME280_temperature;BME280_humidity;BME280_pressure;Samples;Min_cycle;Max_cycle;Signal;HPM_P1;HPM_P2
2022/07/19 00:00:46;;;;;;;6.50;3.58;;;;;;;;;;5061198;28;20505;-78
2022/07/19 00:03:12;;;;;;;7.32;3.47;;;;;;;18.68;74.12;68845.34;5051304;28;20048;-78
2022/07/19 00:05:38;;;;;;;6.03;3.60;;;;;;;18.70;73.95;68855.69;5070356;28;20075;-78
2022/07/19 00:08:03;;;;;;;6.57;3.60;;;;;;;18.64;74.15;68849.44;5055395;28;20041;-78
2022/07/19 00:10:29;;;;;;;6.07;4.00;;;;;;;18.64;74.17;68846.75;5053317;28;20436;-78
2022/07/19 00:12:54;;;;;;;5.45;3.78;;;;;;;18.60;74.08;68842.16;5067574;28;20124;-78
2022/07/19 00:15:20;;;;;;;6.50;3.83;;;;;;;18.56;74.17;68837.59;5055848;28;20049;-78
2022/07/19 00:17:47;;;;;;;6.63;4.30;;;;;;;18.51;74.36;68831.31;5052845;28;20501;-78
2022/07/19 00:20:14;;;;;;;8.18;4.63;;;;;;;;;;5070542;28;20558;-78
2022/07/19 00:22:40;;;;;;;7.60;5.28;;;;;;;18.44;74.67;68823.88;5070664;28;20048;-78
2022/07/19 00:25:05;;;;;;;6.55;4.30;;;;;;;;;;5057276;28;20098;-78
2022/07/19 00:27:30;;;;;;;9.95;4.93;;;;;;;18.36;74.82;68814.78;5059828;28;20056;-77
2022/07/19 00:29:56;;;;;;;10.98;5.60;;;;;;;18.30;74.63;68808.50;5065919;28;20036;-78
2022/07/19 00:32:21;;;;;;;11.38;6.10;;;;;;;18.24;75.46;68802.22;5050683;28;20124;-78
2022/07/19 00:34:47;;;;;;;9.73;5.68;;;;;;;18.21;75.36;68801.47;5060173;28;20051;-78
2022/07/19 00:37:12;;;;;;;8.27;4.72;;;;;;;18.14;75.44;68790.78;5068436;28;20037;-78
2022/07/19 00:39:37;;;;;;;8.65;4.13;;;;;;;18.14;74.73;68796.16;5064135;28;20040;-78
2022/07/19 00:42:03;;;;;;;6.78;4.38;;;;;;;18.14;74.92;68792.91;5068794;28;20132;-78
2022/07/19 00:44:30;;;;;;;5.22;3.90;;;;;;;18.08;75.38;68789.31;5066852;28;20039;-78
2022/07/19 00:46:55;;;;;;;4.40;3.53;;;;;;;18.07;75.23;68782.81;5068877;28;20029;-78
2022/07/19 00:49:21;;;;;;;6.93;4.00;;;;;;;18.09;74.81;68787.19;5067306;28;20079;-78
2022/07/19 00:51:51;;;;;;;5.93;4.03;;;;;;;18.04;75.38;68784.75;5067337;28;20048;-78
2022/07/19 00:54:18;;;;;;;7.25;4.05;;;;;;;18.01;75.27;68776.53;5067264;28;20028;-78
2022/07/19 00:56:48;;;;;;;5.82;4.00;;;;;;;17.97;75.66;68771.38;5069407;28;20036;-78
2022/07/19 00:59:14;;;;;;;5.80;3.58;;;;;;;17.95;74.84;68769.09;5054337;28;20444;-78
2022/07/19 01:01:40;;;;;;;4.88;3.80;;;;;;;17.93;75.63;68767.38;5073209;28;20435;-78
2022/07/19 01:04:05;;;;;;;6.22;4.18;;;;;;;17.83;76.33;68755.41;5073485;28;20100;-78
2022/07/19 01:06:31;;;;;;;6.65;4.20;;;;;;;17.74;76.80;68746.25;5073350;28;20064;-78
2022/07/19 01:08:57;;;;;;;5.00;3.72;;;;;;;17.69;77.36;68740.53;5068863;28;20044;-78
2022/07/19 01:11:23;;;;;;;6.50;3.90;;;;;;;17.72;77.14;68743.97;5071061;28;20041;-78
2022/07/19 01:13:48;;;;;;;6.47;3.72;;;;;;;17.69;77.05;68743.22;5071971;28;20029;-79
2022/07/19 01:16:14;;;;;;;9.15;4.28;;;;;;;17.66;76.79;68736.53;5072206;28;20048;-79
2022/07/19 01:18:40;;;;;;;6.68;4.05;;;;;;;17.65;77.41;68735.41;5070903;28;20075;-78
2022/07/19 01:21:07;;;;;;;4.95;3.65;;;;;;;17.58;77.71;68728.00;5071775;28;20138;-78
2022/07/19 01:23:33;;;;;;;6.28;4.30;;;;;;;17.54;77.88;68723.41;5072936;28;20036;-78
2022/07/19 01:25:58;;;;;;;6.93;4.30;;;;;;;17.52;78.00;68721.13;5072745;28;20465;-78
2022/07/19 01:28:23;;;;;;;6.50;4.13;;;;;;;17.50;78.10;68724.25;5069245;28;20040;-78
2022/07/19 01:30:50;;;;;;;6.22;4.00;;;;;;;17.51;78.41;68720.56;5068448;28;20055;-78
2022/07/19 01:33:16;;;;;;;5.72;3.95;;;;;;;17.52;77.90;68727.09;5063846;28;20045;-78
2022/07/19 01:35:42;;;;;;;5.07;3.40;;;;;;;17.49;77.90;68720.41;5066157;28;20032;-78
2022/07/19 01:38:07;;;;;;;6.68;4.03;;;;;;;17.49;78.02;68723.09;5073165;28;20048;-78
2022/07/19 01:40:33;;;;;;;5.97;3.72;;;;;;;17.48;77.91;68716.56;5071381;28;20044;-78
2022/07/19 01:42:59;;;;;;;6.60;4.30;;;;;;;17.42;78.21;68709.72;5073258;28;20041;-78
2022/07/19 01:45:24;;;;;;;5.18;4.05;;;;;;;17.40;78.62;68707.44;5071662;28;20051;-77
2022/07/19 01:47:50;;;;;;;5.07;3.63;;;;;;;17.34;78.45;68704.44;5069735;28;20037;-78
2022/07/19 01:50:17;;;;;;;5.97;4.15;;;;;;;17.29;78.67;68698.75;5073311;28;20056;-77
2022/07/19 01:52:43;;;;;;;9.95;3.83;;;;;;;17.33;78.58;68700.03;5072213;28;20044;-78
2022/07/19 01:55:08;;;;;;;4.57;3.50;;;;;;;17.24;79.54;68695.16;5074501;28;20390;-78
2022/07/19 01:57:34;;;;;;;6.68;4.05;;;;;;;17.18;79.39;68678.13;5057075;28;20132;-78
2022/07/19 02:00:00;;;;;;;5.60;3.95;;;;;;;17.20;78.80;68690.56;5053857;28;20455;-78
2022/07/19 02:02:25;;;;;;;5.60;3.97;;;;;;;17.16;78.83;68683.91;5052046;28;20047;-77
2022/07/19 02:04:51;;;;;;;5.78;4.00;;;;;;;17.18;78.55;68682.94;5060662;28;20116;-77
2022/07/19 02:07:16;;;;;;;7.45;4.07;;;;;;;17.18;78.34;68682.94;5061327;28;20049;-78
2022/07/19 02:09:42;;;;;;;5.13;3.85;;;;;;;17.16;78.49;68683.91;5053757;28;20044;-78
2022/07/19 02:12:07;;;;;;;5.22;3.97;;;;;;;17.15;78.35;68680.06;5063295;28;20052;-78
2022/07/19 02:14:33;;;;;;;5.25;3.97;;;;;;;17.11;78.20;68678.19;5072684;28;20036;-78
2022/07/19 02:16:58;;;;;;;6.30;4.15;;;;;;;17.09;78.42;68673.22;5071972;28;20037;-78
2022/07/19 02:19:24;;;;;;;5.38;4.10;;;;;;;17.00;78.80;68662.94;5074689;28;20036;-78
2022/07/19 02:21:49;;;;;;;5.88;4.00;;;;;;;17.00;78.74;68662.94;5065366;28;20041;-78
2022/07/19 02:24:15;;;;;;;5.32;3.95;;;;;;;16.96;78.82;68663.78;5035442;28;20048;-78
2022/07/19 02:26:40;;;;;;;6.43;4.03;;;;;;;16.97;78.75;68662.22;5053947;28;20443;-78
2022/07/19 02:29:06;;;;;;;5.38;4.28;;;;;;;16.94;78.83;68659.38;5069257;28;20647;-78
2022/07/19 02:31:31;;;;;;;5.30;3.92;;;;;;;16.84;79.72;68645.84;5069541;28;20482;-78
2022/07/19 02:33:57;;;;;;;7.72;4.22;;;;;;;16.78;80.18;68643.81;5070951;28;20048;-78
2022/07/19 02:36:22;;;;;;;5.50;4.13;;;;;;;16.80;80.27;68640.72;5072139;28;20049;-78
2022/07/19 02:38:48;;;;;;;6.95;3.92;;;;;;;16.77;80.15;68640.53;5070267;28;20053;-78
2022/07/19 02:41:13;;;;;;;4.60;3.70;;;;;;;16.79;79.92;68645.50;5071172;28;20035;-78
2022/07/19 02:43:39;;;;;;;6.53;4.05;;;;;;;16.78;80.02;68644.38;5060104;28;20144;-78
2022/07/19 02:46:05;;;;;;;5.95;4.18;;;;;;;16.75;79.95;68635.00;5065557;28;20139;-78
2022/07/19 02:48:30;;;;;;;6.35;4.53;;;;;;;16.72;80.18;68634.84;5070919;28;20127;-78
2022/07/19 02:50:56;;;;;;;6.15;4.65;;;;;;;16.68;80.49;68628.13;5068593;28;20443;-78
2022/07/19 02:53:21;;;;;;;4.93;4.18;;;;;;;16.65;80.54;68624.16;5054536;28;20654;-78
2022/07/19 02:55:46;;;;;;;7.90;4.55;;;;;;;;;;5053558;28;20413;-79
2022/07/19 02:58:12;;;;;;;6.05;4.18;;;;;;;16.60;80.49;68618.44;5070178;28;20040;-79
2022/07/19 03:00:37;;;;;;;8.65;5.05;;;;;;;16.58;80.68;68618.88;5069997;28;20064;-78
2022/07/19 03:05:48;;;;;;;8.07;4.78;;;;;;;16.54;80.90;68614.88;5071709;28;20315;-79
2022/07/19 03:08:14;;;;;;;9.52;4.75;;;;;;;16.51;80.62;68614.13;5074999;28;20059;-79
2022/07/19 03:10:39;;;;;;;5.43;4.45;;;;;;;16.50;80.80;68613.00;5073428;28;20036;-78
2022/07/19 03:13:05;;;;;;;7.00;4.75;;;;;;;16.48;80.73;68605.34;5072085;28;20615;-78
2022/07/19 03:15:30;;;;;;;6.85;4.80;;;;;;;;;;5071330;28;20128;-78
2022/07/19 03:17:55;;;;;;;7.45;4.63;;;;;;;16.42;81.71;68598.50;5071022;28;20041;-78
2022/07/19 03:20:21;;;;;;;7.75;4.80;;;;;;;16.41;81.98;68597.94;5069273;28;20060;-78
2022/07/19 03:22:47;;;;;;;7.70;4.93;;;;;;;16.40;82.12;68596.81;5067343;28;20471;-78
2022/07/19 03:25:12;;;;;;;9.10;5.03;;;;;;;16.43;81.19;68600.22;5067894;28;20821;-78
2022/07/19 03:27:39;;;;;;;7.25;4.75;;;;;;;16.41;81.70;68597.94;5065776;28;20124;-78
2022/07/19 03:30:05;;;;;;;8.60;5.03;;;;;;;16.40;81.79;68598.91;5071696;28;20047;-78
2022/07/19 03:32:31;;;;;;;9.00;5.53;;;;;;;16.41;81.67;68600.63;5061382;28;20098;-78
2022/07/19 03:34:56;;;;;;;6.68;4.70;;;;;;;16.44;81.21;68603.47;5069784;28;20400;-78
2022/07/19 03:37:21;;;;;;;6.75;4.95;;;;;;;16.45;80.71;68605.16;5052855;28;20029;-78
2022/07/19 03:39:47;;;;;;;8.73;4.32;;;;;;;16.45;81.33;68607.28;5072159;28;20510;-79
2022/07/19 03:42:12;;;;;;;9.27;5.30;;;;;;;;;;5071436;28;20045;-79
2022/07/19 03:44:37;;;;;;;8.23;5.18;;;;;;;16.45;81.17;68607.28;5071002;28;20736;-78
2022/07/19 03:47:03;;;;;;;7.00;5.10;;;;;;;16.46;81.27;68605.75;5072177;28;20040;-78
2022/07/19 03:49:28;;;;;;;6.32;5.15;;;;;;;16.46;81.46;68603.06;5067792;28;20038;-78
2022/07/19 03:51:53;;;;;;;6.38;5.20;;;;;;;16.50;81.21;68607.06;5070421;28;20094;-78
2022/07/19 03:54:19;;;;;;;8.00;4.95;;;;;;;16.46;81.33;68603.63;5070326;28;20041;-78
2022/07/19 03:56:44;;;;;;;8.45;5.22;;;;;;;16.48;81.12;68608.03;5072455;28;20054;-78
2022/07/19 03:59:09;;;;;;;8.10;5.95;;;;;;;16.48;81.40;68610.72;5070906;28;20112;-78
2022/07/19 04:01:37;;;;;;;7.07;5.13;;;;;;;16.46;81.34;68605.75;5070961;28;20040;-78
2022/07/19 04:04:03;;;;;;;11.65;5.45;;;;;;;16.45;81.42;68604.59;5069352;28;20037;-78
2022/07/19 04:06:29;;;;;;;9.52;5.22;;;;;;;16.43;81.85;68607.72;5069249;28;20400;-78
2022/07/19 04:08:54;;;;;;;7.32;5.25;;;;;;;;;;5072683;28;20418;-78
2022/07/19 04:11:19;;;;;;;7.72;5.72;;;;;;;16.45;82.05;68602.47;5066944;28;20044;-78
2022/07/19 04:13:44;;;;;;;7.15;5.05;;;;;;;16.47;81.96;68604.19;5073523;28;20060;-78
2022/07/19 04:16:10;;;;;;;7.05;5.07;;;;;;;16.51;81.55;68611.44;5074427;28;20420;-78
2022/07/19 04:18:37;;;;;;;6.55;5.15;;;;;;;16.54;81.54;68614.28;5073495;28;20121;-78
2022/07/19 04:21:02;;;;;;;6.72;4.85;;;;;;;16.55;81.73;68618.13;5071591;28;20044;-79
2022/07/19 04:23:28;;;;;;;7.35;5.40;;;;;;;;;;5060280;28;20433;-79
2022/07/19 04:25:53;;;;;;;10.00;5.10;;;;;;;16.59;81.41;68622.69;5061896;28;20065;-78
2022/07/19 04:28:18;;;;;;;9.20;5.75;;;;;;;16.58;82.16;68618.88;5070311;28;20364;-78
2022/07/19 04:30:44;;;;;;;7.00;4.97;;;;;;;16.57;82.45;68617.72;5073903;28;20044;-78
2022/07/19 04:33:12;;;;;;;9.95;5.45;;;;;;;;;;5074831;28;20048;-78
2022/07/19 04:35:37;;;;;;;7.70;5.38;;;;;;;16.74;81.85;68636.53;5075068;28;20036;-78
2022/07/19 04:38:03;;;;;;;8.63;5.75;;;;;;;16.78;81.37;68638.44;5065416;28;20505;-79
2022/07/19 04:40:28;;;;;;;8.90;4.95;;;;;;;16.82;81.75;68643.00;5071213;28;20067;-78
2022/07/19 04:42:53;;;;;;;9.13;5.38;;;;;;;;;;5073889;28;20088;-79
2022/07/19 04:45:19;;;;;;;9.65;5.97;;;;;;;16.90;81.15;68647.31;5072581;28;20032;-78
2022/07/19 04:47:44;;;;;;;9.60;5.82;;;;;;;17.01;80.92;68664.09;5073669;28;20048;-78
2022/07/19 04:50:09;;;;;;;7.40;5.78;;;;;;;;;;5071988;28;20048;-78
2022/07/19 04:52:35;;;;;;;8.27;5.82;;;;;;;17.15;80.59;68682.75;5068070;28;20481;-78
2022/07/19 04:55:00;;;;;;;9.20;5.85;;;;;;;17.24;80.03;68689.78;5073956;28;20051;-78
2022/07/19 04:57:25;;;;;;;10.40;6.07;;;;;;;17.33;79.51;68700.59;5076039;28;20040;-79
2022/07/19 04:59:51;;;;;;;9.38;6.55;;;;;;;17.42;79.56;68715.13;5075359;28;20040;-78
2022/07/19 05:02:16;;;;;;;10.13;5.85;;;;;;;17.54;78.66;68723.41;5074132;28;20036;-79
2022/07/19 05:04:41;;;;;;;8.65;5.72;;;;;;;17.68;78.27;68734.00;5074311;28;20037;-78
2022/07/19 05:07:07;;;;;;;9.25;6.00;;;;;;;17.77;77.86;68743.72;5074346;28;20032;-78
2022/07/19 05:09:33;;;;;;;8.57;5.68;;;;;;;17.88;77.46;68761.09;5075254;28;20033;-78
2022/07/19 05:11:58;;;;;;;7.53;5.25;;;;;;;17.99;76.90;68768.28;5075874;28;20421;-79
2022/07/19 05:14:23;;;;;;;8.88;5.97;;;;;;;18.07;76.90;68785.50;5071164;28;20047;-78
2022/07/19 05:16:50;;;;;;;7.88;6.03;;;;;;;18.16;77.73;68795.75;5076287;28;20048;-78
2022/07/19 05:19:16;;;;;;;11.32;6.03;;;;;;;18.32;75.30;68815.59;5075764;28;20044;-78
2022/07/19 05:21:41;;;;;;;7.53;5.80;;;;;;;18.48;74.63;68831.16;5072378;28;20390;-78
2022/07/19 05:24:07;;;;;;;7.22;5.80;;;;;;;;;;5076626;28;20036;-78
2022/07/19 05:26:33;;;;;;;9.95;6.00;;;;;;;18.73;73.86;68856.44;5074487;28;20044;-78
2022/07/19 05:28:59;;;;;;;8.75;6.05;;;;;;;18.83;73.99;68867.88;5074761;28;20090;-79
2022/07/19 05:31:25;;;;;;;8.55;6.03;;;;;;;18.92;72.06;68877.59;5070466;28;20040;-79
2022/07/19 05:33:50;;;;;;;8.45;5.85;;;;;;;;;;5075220;28;20068;-79
2022/07/19 05:36:16;;;;;;;9.98;5.13;;;;;;;;;;5075579;28;20043;-78
2022/07/19 05:38:41;;;;;;;7.90;5.25;;;;;;;19.35;70.64;68926.16;5075448;28;20493;-78
2022/07/19 05:41:09;;;;;;;8.32;5.03;;;;;;;19.48;70.77;68943.13;5073413;28;20041;-78
2022/07/19 05:43:36;;;;;;;9.10;5.87;;;;;;;19.64;69.96;68952.19;5069276;28;20067;-78
2022/07/19 05:46:01;;;;;;;9.77;5.70;;;;;;;19.77;69.69;68972.47;5070287;28;20266;-79
2022/07/19 05:48:27;;;;;;;8.43;5.78;;;;;;;;;;5051794;28;20044;-79
2022/07/19 05:50:52;;;;;;;8.70;5.78;;;;;;;;;;5063705;28;20439;-79
2022/07/19 05:53:18;;;;;;;9.35;6.00;;;;;;;20.26;67.43;69027.34;5063160;28;20114;-78
2022/07/19 05:55:44;;;;;;;11.13;6.05;;;;;;;20.39;67.72;69041.63;5068343;28;20497;-79
2022/07/19 05:58:09;;;;;;;7.28;5.40;;;;;;;20.55;66.61;69059.38;5068968;28;20044;-79
2022/07/19 06:00:35;;;;;;;10.02;5.30;;;;;;;20.68;65.61;69074.81;5046049;28;20721;-78
2022/07/19 06:03:00;;;;;;;9.27;5.28;;;;;;;20.86;65.09;69094.25;5076180;28;20113;-78
2022/07/19 06:05:25;;;;;;;6.68;5.35;;;;;;;;;;5076415;28;20458;-79
2022/07/19 06:07:51;;;;;;;11.73;5.40;;;;;;;;;;5075795;28;20049;-79
2022/07/19 06:10:16;;;;;;;8.00;5.40;;;;;;;;;;5075989;28;20457;-79
2022/07/19 06:12:41;;;;;;;9.67;5.37;;;;;;;21.49;62.94;69159.81;5075525;28;20043;-79
2022/07/19 06:15:07;;;;;;;7.75;5.82;;;;;;;21.65;62.89;69182.97;5077914;28;20303;-79
2022/07/19 06:17:33;;;;;;;10.35;4.88;;;;;;;21.83;60.46;69205.69;5074530;28;20041;-79
2022/07/19 06:19:58;;;;;;;7.95;4.63;;;;;;;22.05;59.29;69227.59;5076677;28;20064;-79
2022/07/19 06:22:23;;;;;;;6.82;4.22;;;;;;;22.24;58.33;69243.97;5076986;28;20058;-79
2022/07/19 06:24:49;;;;;;;6.90;3.95;;;;;;;;;;5073021;28;20120;-79
2022/07/19 06:27:14;;;;;;;6.57;4.00;;;;;;;22.69;57.05;69294.34;5078389;28;20052;-80
2022/07/19 06:29:40;;;;;;;6.50;3.92;;;;;;;22.83;56.11;69314.66;5077923;28;20052;-80
2022/07/19 06:32:05;;;;;;;8.65;4.57;;;;;;;22.87;54.13;69319.22;5074335;28;20051;-79
2022/07/19 06:34:30;;;;;;;7.60;4.82;;;;;;;23.02;53.98;69341.28;5077991;28;20055;-79
2022/07/19 06:36:56;;;;;;;8.52;4.72;;;;;;;;;;5074347;28;20112;-80
2022/07/19 06:39:21;;;;;;;7.95;5.00;;;;;;;;;;5078376;28;20049;-78
2022/07/19 06:41:47;;;;;;;11.57;5.57;;;;;;;23.47;52.39;69378.13;5079750;28;20281;-79
2022/07/19 06:44:13;;;;;;;12.65;5.43;;;;;;;23.55;52.16;69390.03;5073757;28;20060;-79
2022/07/19 06:46:38;;;;;;;10.93;5.30;;;;;;;23.63;52.30;69399.78;5074934;28;20048;-79
2022/07/19 06:49:04;;;;;;;12.43;5.30;;;;;;;23.79;51.97;69414.25;5073001;28;20093;-79
2022/07/19 06:51:29;;;;;;;8.90;4.82;;;;;;;23.90;51.69;69435.03;5074716;28;20043;-79
2022/07/19 06:53:54;;;;;;;10.93;5.07;;;;;;;;;;5074282;28;20539;-80
2022/07/19 06:56:19;;;;;;;8.53;4.90;;;;;;;;;;5072759;28;20201;-79
2022/07/19 06:58:45;;;;;;;8.70;4.43;;;;;;;24.25;52.16;69469.13;5066298;28;20283;-79
2022/07/19 07:01:10;;;;;;;8.35;4.47;;;;;;;24.37;50.89;69479.03;5078801;28;20285;-79
2022/07/19 07:03:37;;;;;;;9.55;4.70;;;;;;;24.48;50.47;69500.41;5077485;28;20106;-79
2022/07/19 07:06:03;;;;;;;6.97;4.90;;;;;;;24.59;50.35;69511.88;5079072;28;20059;-80
2022/07/19 07:08:28;;;;;;;9.02;4.78;;;;;;;24.70;50.47;69519.63;5059656;28;20052;-80
2022/07/19 07:10:54;;;;;;;9.52;4.38;;;;;;;24.84;49.62;69540.56;5075002;28;20056;-80
2022/07/19 07:13:19;;;;;;;6.18;4.03;;;;;;;;;;5074490;28;20033;-79
2022/07/19 07:15:45;;;;;;;7.73;4.20;;;;;;;25.10;49.03;69563.78;5071153;28;20032;-78
2022/07/19 07:18:10;;;;;;;10.07;3.78;;;;;;;;;;5073699;28;20294;-79
2022/07/19 07:20:35;;;;;;;10.00;4.03;;;;;;;;;;5069954;28;20040;-79
2022/07/19 07:23:02;;;;;;;6.77;4.10;;;;;;;25.56;48.00;69620.91;5077133;28;20049;-79
2022/07/19 07:25:28;;;;;;;6.45;3.63;;;;;;;25.64;46.30;69624.63;5072705;28;20286;-79
2022/07/19 07:27:53;;;;;;;8.45;3.90;;;;;;;25.85;45.99;69648.75;5077008;28;20108;-79
2022/07/19 07:30:19;;;;;;;6.70;3.30;;;;;;;;;;5075954;28;20091;-80
2022/07/19 07:32:44;;;;;;;8.07;3.10;;;;;;;;;;5074697;28;20110;-80
2022/07/19 07:35:09;;;;;;;7.67;3.00;;;;;;;;;;5070861;28;20289;-79
2022/07/19 07:37:34;;;;;;;7.20;3.03;;;;;;;26.43;45.36;69710.88;5075204;28;20287;-79
2022/07/19 07:40:00;;;;;;;6.97;2.60;;;;;;;26.57;44.78;69729.13;5077444;28;20279;-79
2022/07/19 07:42:25;;;;;;;6.57;2.78;;;;;;;26.64;44.21;69737.16;5073665;28;20043;-79
2022/07/19 07:44:51;;;;;;;7.28;2.60;;;;;;;26.80;44.53;69754.41;5074500;28;20036;-79
2022/07/19 07:47:17;;;;;;;13.85;2.83;;;;;;;;;;5075034;28;20096;-79
2022/07/19 07:49:42;;;;;;;5.37;2.57;;;;;;;27.01;43.37;69773.06;5073042;28;20065;-79
2022/07/19 07:52:09;;;;;;;8.93;2.95;;;;;;;27.09;42.77;69787.13;5057130;28;20344;-79
2022/07/19 07:54:34;;;;;;;4.53;2.47;;;;;;;;;;5073540;28;20456;-78
2022/07/19 07:56:59;;;;;;;5.35;2.60;;;;;;;27.34;43.27;69815.31;5076467;28;20040;-79
2022/07/19 07:59:25;;;;;;;4.72;2.63;;;;;;;;;;5071892;28;20115;-79
2022/07/19 08:01:50;;;;;;;7.35;2.47;;;;;;;27.54;42.22;69843.19;5068537;28;20662;-78
2022/07/19 08:04:15;;;;;;;6.55;3.08;;;;;;;27.67;41.78;69853.22;5070801;28;20047;-79
2022/07/19 08:06:41;;;;;;;6.22;2.25;;;;;;;27.84;41.27;69871.63;5067165;28;20040;-79
2022/07/19 08:09:06;;;;;;;8.52;2.45;;;;;;;28.00;41.42;69890.03;5072705;28;20070;-79
2022/07/19 08:11:32;;;;;;;8.52;2.72;;;;;;;28.04;42.45;69894.63;5068673;28;20037;-79
2022/07/19 08:13:57;;;;;;;6.57;2.40;;;;;;;28.20;40.95;69912.44;5071075;28;20045;-79
2022/07/19 08:16:23;;;;;;;10.80;2.58;;;;;;;28.26;40.59;69916.03;5068445;28;20056;-80
2022/07/19 08:18:48;;;;;;;5.63;2.10;;;;;;;28.39;40.37;69933.13;5053042;28;20067;-80
2022/07/19 08:21:14;;;;;;;8.65;2.60;;;;;;;28.46;40.59;69941.78;5068025;28;20108;-80
2022/07/19 08:23:41;;;;;;;7.13;2.47;;;;;;;28.61;39.81;69952.97;5074387;28;21253;-81
2022/07/19 08:26:07;;;;;;;9.10;2.63;;;;;;;28.73;40.58;69971.69;5070042;28;20044;-80
2022/07/19 08:28:32;;;;;;;6.05;2.20;;;;;;;28.84;39.75;69984.31;5071212;28;20449;-81
2022/07/19 08:30:57;;;;;;;8.38;2.63;;;;;;;28.89;39.71;69987.34;5071455;28;20068;-81
2022/07/19 08:33:23;;;;;;;6.10;2.80;;;;;;;29.04;39.51;70003.47;5075801;28;20488;-80
2022/07/19 08:35:48;;;;;;;6.68;2.28;;;;;;;29.12;39.34;70015.41;5076332;28;20036;-80
2022/07/19 08:38:14;;;;;;;7.25;2.40;;;;;;;29.23;38.67;70025.31;5077284;28;20043;-80
2022/07/19 08:40:42;;;;;;;5.80;2.97;;;;;;;29.33;37.97;70036.81;5075994;28;20036;-80
2022/07/19 08:43:08;;;;;;;9.57;2.38;;;;;;;29.48;36.28;70056.25;5071788;28;20063;-80
2022/07/19 08:45:36;;;;;;;6.78;2.35;;;;;;;29.45;35.96;70052.78;5074738;28;20032;-80
2022/07/19 08:48:04;;;;;;;;;;;;;;;29.48;35.27;70056.25;5076802;28;20048;-80
2022/07/19 08:50:29;;;;;;;6.75;2.05;;;;;;;29.63;35.76;70073.50;5072155;28;19917;-80
2022/07/19 08:52:56;;;;;;;4.90;2.42;;;;;;;29.76;34.40;70085.16;5076141;28;20040;-80
2022/07/19 08:55:22;;;;;;;7.00;2.20;;;;;;;29.97;34.07;70117.00;5074822;28;20052;-80
2022/07/19 08:57:56;;;;;;;8.82;2.20;;;;;;;30.13;33.66;70129.34;5075386;28;20070;-80
2022/07/19 09:00:22;;;;;;;5.50;1.98;;;;;;;30.16;33.04;70132.78;5071337;28;20118;-80
2022/07/19 09:02:59;;;;;;;6.57;2.35;;;;;;;30.35;32.15;70149.19;5073159;28;20438;-80
2022/07/19 09:05:25;;;;;;;5.75;2.20;;;;;;;;;;5072515;28;20036;-81
2022/07/19 09:08:07;;;;;;;7.53;2.10;;;;;;;30.66;31.85;70185.91;5070132;28;20044;-80
2022/07/19 09:10:34;;;;;;;5.82;2.15;;;;;;;30.64;30.25;70184.16;5063587;28;20040;-80
2022/07/19 09:13:09;;;;;;;6.47;2.05;;;;;;;30.69;30.10;70187.19;5068233;28;20070;-80
2022/07/19 09:15:50;;;;;;;7.93;2.20;;;;;;;30.84;31.50;70203.88;5068640;28;20044;-80
2022/07/19 09:18:20;;;;;;;5.07;2.05;;;;;;;31.09;30.75;70237.03;5077388;22;20052;-79
2022/07/19 09:20:47;;;;;;;5.93;2.00;;;;;;;31.23;29.21;70248.22;5076203;28;20591;-81
2022/07/19 09:23:13;;;;;;;5.07;1.80;;;;;;;31.32;29.00;70257.44;5083599;28;20125;-80
2022/07/19 09:25:50;;;;;;;9.23;2.45;;;;;;;31.42;29.45;70272.31;5081326;28;20074;-81
2022/07/19 09:28:17;;;;;;;7.95;2.00;;;;;;;31.47;28.90;70277.50;5069664;28;20040;-82
2022/07/19 09:30:43;;;;;;;6.95;1.95;;;;;;;31.54;29.29;70282.81;5079920;28;20172;-80
2022/07/19 09:33:18;;;;;;;5.25;1.90;;;;;;;31.65;28.30;70294.91;5084555;28;20553;-81
2022/07/19 09:35:49;;;;;;;5.90;2.10;;;;;;;31.83;29.28;70317.81;5083731;28;20040;-79
2022/07/19 09:38:37;;;;;;;4.15;1.98;;;;;;;32.10;29.56;70348.94;5088361;28;20054;-78
2022/07/19 09:41:14;;;;;;;5.07;2.63;;;;;;;32.26;29.05;70364.06;5084739;28;20046;-81
2022/07/19 09:43:55;;;;;;;5.30;2.08;;;;;;;32.42;28.23;70387.44;5083831;28;20126;-82
2022/07/19 09:46:36;;;;;;;4.50;2.20;;;;;;;32.41;27.83;70380.78;5086726;28;20060;-81
2022/07/19 09:49:08;;;;;;;4.90;2.38;;;;;;;32.44;27.88;70389.75;5087689;28;20153;-80
2022/07/19 09:51:35;;;;;;;5.53;2.20;;;;;;;32.70;26.34;70418.59;5090152;28;20036;-78
2022/07/19 09:54:03;;;;;;;3.90;2.00;;;;;;;32.70;27.29;70416.41;5060740;28;20056;-83
2022/07/19 09:56:29;;;;;;;5.22;2.20;;;;;;;32.78;27.96;70427.81;5065574;28;20037;-81
2022/07/19 09:58:57;;;;;;;4.80;2.17;;;;;;;32.78;27.70;70422.28;5061475;28;20119;-83
2022/07/19 10:01:23;;;;;;;6.30;2.40;;;;;;;32.95;28.14;70438.56;5087131;28;20044;-80
2022/07/19 10:03:51;;;;;;;7.13;2.63;;;;;;;33.13;26.91;70467.03;5092952;28;20074;-79
2022/07/19 10:06:17;;;;;;;6.80;2.30;;;;;;;33.25;27.75;70475.91;5094477;28;20392;-81
2022/07/19 10:08:43;;;;;;;7.25;2.53;;;;;;;33.43;27.12;70495.53;5094318;28;20051;-79
2022/07/19 10:11:08;;;;;;;5.78;1.98;;;;;;;33.40;27.03;70498.16;5091127;28;20564;-78
2022/07/19 10:13:35;;;;;;;5.93;2.20;;;;;;;33.51;26.95;70509.69;5091400;28;20088;-82
2022/07/19 10:16:07;;;;;;;6.75;2.40;;;;;;;33.68;26.17;70526.56;5078645;28;20128;-80
2022/07/19 10:18:42;;;;;;;6.93;2.33;;;;;;;33.78;26.28;70535.34;5072543;28;20117;-79
2022/07/19 10:21:08;;;;;;;3.55;2.10;;;;;;;33.81;25.74;70538.81;5077609;28;20139;-81
2022/07/19 10:23:34;;;;;;;5.05;2.10;;;;;;;33.82;25.58;70539.94;5086958;28;20123;-81
2022/07/19 10:25:59;;;;;;;4.60;2.25;;;;;;;33.80;25.07;70542.59;5088668;28;20424;-81
2022/07/19 10:28:34;;;;;;;4.25;2.30;;;;;;;33.81;25.60;70541.56;5087733;28;20049;-81
2022/07/19 10:31:00;;;;;;;7.18;2.60;;;;;;;34.00;26.21;70562.91;5085324;28;20044;-80
2022/07/19 10:33:32;;;;;;;5.35;2.20;;;;;;;34.01;25.85;70560.72;5089216;28;20036;-81
2022/07/19 10:35:58;;;;;;;4.15;2.35;;;;;;;34.11;25.71;70575.63;5079084;28;20051;-81
2022/07/19 10:38:23;;;;;;;8.98;2.53;;;;;;;34.30;26.70;70594.19;5082917;28;20024;-79
2022/07/19 10:40:58;;;;;;;4.35;2.38;;;;;;;34.44;26.58;70611.94;5080117;28;20076;-81
2022/07/19 10:43:25;;;;;;;5.07;2.33;;;;;;;34.47;25.39;70612.66;5080676;28;20032;-81
2022/07/19 10:45:56;;;;;;;5.47;2.40;;;;;;;34.42;24.73;70609.66;5084524;28;20048;-81
2022/07/19 10:48:35;;;;;;;6.82;2.78;;;;;;;34.41;25.49;70605.72;5084630;28;20036;-81
2022/07/19 10:51:01;;;;;;;6.20;2.50;;;;;;;34.41;25.86;70606.31;5081084;28;20064;-80
2022/07/19 10:53:41;;;;;;;6.68;2.50;;;;;;;34.53;25.04;70619.59;5086937;28;20028;-79
2022/07/19 10:56:17;;;;;;;4.03;2.10;;;;;;;34.61;25.07;70631.03;5078904;28;20032;-81
2022/07/19 10:59:07;;;;;;;3.72;2.20;;;;;;;34.70;24.83;70642.00;5089337;28;20040;-81
2022/07/19 11:01:34;;;;;;;4.32;2.55;;;;;;;34.71;25.86;70639.81;5089295;28;20044;-81
2022/07/19 11:04:21;;;;;;;4.63;2.10;;;;;;;34.75;24.30;70644.41;5088274;28;20071;-83
2022/07/19 11:06:47;;;;;;;5.07;2.50;;;;;;;34.78;23.81;70648.44;5088741;28;20131;-80
2022/07/19 11:09:12;;;;;;;5.05;2.35;;;;;;;34.73;23.70;70642.09;5087442;28;20146;-81
2022/07/19 11:11:37;;;;;;;7.15;2.58;;;;;;;34.69;24.59;70635.28;5081739;28;20051;-80
2022/07/19 11:14:04;;;;;;;5.22;2.38;;;;;;;34.82;23.89;70655.28;5091322;28;20162;-81
2022/07/19 11:16:29;;;;;;;6.53;2.58;;;;;;;34.83;23.38;70655.84;5090899;28;20044;-79
2022/07/19 11:19:05;;;;;;;3.45;2.35;;;;;;;34.89;23.21;70663.34;5088916;28;20040;-81
2022/07/19 11:21:34;;;;;;;6.50;2.70;;;;;;;34.98;23.15;70673.16;5088312;28;20048;-80
2022/07/19 11:24:00;;;;;;;;;;;;;;;35.32;24.13;70708.50;5087557;28;20048;-81
2022/07/19 11:26:25;;;;;;;5.07;2.30;;;;;;;35.20;23.24;70693.03;5086130;28;19916;-80
2022/07/19 11:28:51;;;;;;;6.15;2.35;;;;;;;35.18;23.11;70690.72;5083893;28;20415;-81
2022/07/19 11:31:19;;;;;;;6.88;2.47;;;;;;;35.15;23.06;70689.44;5088051;28;20225;-80
2022/07/19 11:33:47;;;;;;;6.95;2.40;;;;;;;35.17;22.72;70689.56;5068975;28;20070;-81
2022/07/19 11:36:15;;;;;;;4.50;2.20;;;;;;;35.29;23.53;70699.50;5084210;28;20444;-81
2022/07/19 11:38:47;;;;;;;3.92;2.35;;;;;;;35.30;22.23;70706.75;5084573;28;20041;-81
2022/07/19 11:41:26;;;;;;;3.97;2.65;;;;;;;35.21;22.85;70702.50;5081589;28;20511;-80
2022/07/19 11:43:57;;;;;;;4.47;2.40;;;;;;;35.19;22.39;70694.06;5069550;28;20530;-80
2022/07/19 11:46:25;;;;;;;7.70;2.70;;;;;;;35.38;22.98;70715.44;5086544;28;20040;-81
2022/07/19 11:48:59;;;;;;;6.40;2.72;;;;;;;35.69;23.19;70754.00;5083383;28;20047;-80
2022/07/19 11:51:25;;;;;;;6.10;2.47;;;;;;;35.74;22.38;70753.09;5090042;28;20101;-82